createdAt,value
2019-05-23T00:00:46.829Z,73.20
2019-05-23T00:03:18.494Z,73.30
2019-05-23T00:06:06.889Z,73.34
2019-05-23T00:08:38.041Z,73.38
2019-05-23T00:11:30.468Z,73.50
2019-05-23T00:14:05.282Z,73.74
2019-05-23T00:16:34.596Z,73.73
2019-05-23T00:19:04.549Z,74.17
2019-05-23T00:21:34.739Z,74.07
2019-05-23T00:24:05.176Z,74.05
2019-05-23T00:26:36.021Z,73.96
2019-05-23T00:29:10.659Z,73.60
2019-05-23T00:31:50.421Z,73.49
2019-05-23T00:34:20.301Z,73.46
2019-05-23T00:36:49.527Z,73.49
2019-05-23T00:39:19.749Z,73.86
2019-05-23T00:41:49.766Z,73.57
2019-05-23T00:44:19.962Z,73.52
2019-05-23T00:46:50.081Z,73.43
2019-05-23T00:49:19.970Z,73.44
2019-05-23T00:51:49.106Z,73.32
2019-05-23T00:54:19.389Z,73.41
2019-05-23T00:56:49.533Z,73.46
2019-05-23T00:59:27.281Z,73.48
2019-05-23T01:01:50.309Z,73.33
2019-05-23T01:04:21.700Z,73.28
2019-05-23T01:06:50.835Z,73.30
2019-05-23T01:09:20.439Z,73.41
2019-05-23T01:11:49.766Z,73.46
2019-05-23T01:14:20.497Z,73.44
2019-05-23T01:16:51.318Z,73.45
2019-05-23T01:19:21.310Z,73.33
2019-05-23T01:22:00.175Z,73.31
2019-05-23T01:24:33.842Z,73.54
2019-05-23T01:27:04.576Z,73.96
2019-05-23T01:29:39.855Z,74.27
2019-05-23T01:32:21.606Z,74.30
2019-05-23T01:34:51.081Z,73.86
2019-05-23T01:37:21.470Z,74.09
2019-05-23T01:39:50.901Z,74.19
2019-05-23T01:42:20.558Z,74.05
2019-05-23T01:44:50.169Z,73.83
2019-05-23T01:47:20.078Z,73.77
2019-05-23T01:49:49.930Z,73.74
2019-05-23T01:52:20.162Z,73.59
2019-05-23T01:54:49.384Z,73.60
2019-05-23T01:57:18.719Z,73.56
2019-05-23T01:59:48.457Z,73.70
2019-05-23T02:02:19.256Z,73.56
2019-05-23T02:04:48.457Z,73.51
2019-05-23T02:07:18.153Z,73.59
2019-05-23T02:09:47.309Z,73.51
2019-05-23T02:12:17.798Z,73.48
2019-05-23T02:14:48.433Z,73.47
2019-05-23T02:17:18.236Z,73.50
2019-05-23T02:19:48.161Z,73.50
2019-05-23T02:22:17.937Z,73.57
2019-05-23T02:24:48.288Z,73.78
2019-05-23T02:27:18.110Z,73.85
2019-05-23T02:29:47.454Z,73.83
2019-05-23T02:32:18.138Z,73.73
2019-05-23T02:34:49.136Z,73.78
2019-05-23T02:37:40.318Z,73.99
2019-05-23T02:40:19.318Z,74.12
2019-05-23T02:42:54.727Z,74.38
2019-05-23T02:45:31.156Z,74.25
2019-05-23T02:48:01.261Z,74.64
2019-05-23T02:50:36.371Z,74.51
2019-05-23T02:53:07.814Z,74.25
2019-05-23T02:55:40.630Z,74.02
2019-05-23T02:58:18.034Z,74.20
2019-05-23T03:01:05.741Z,74.18
2019-05-23T03:03:36.929Z,74.22
2019-05-23T03:06:12.816Z,74.14
2019-05-23T03:08:43.893Z,74.07
2019-05-23T03:11:45.710Z,74.09
2019-05-23T03:14:16.486Z,74.28
2019-05-23T03:16:47.087Z,74.33
2019-05-23T03:19:23.171Z,74.12
2019-05-23T03:21:56.506Z,74.08
2019-05-23T03:24:26.423Z,74.02
2019-05-23T03:27:07.783Z,74.07
2019-05-23T03:29:36.911Z,74.03
2019-05-23T03:32:14.683Z,74.05
2019-05-23T03:34:45.763Z,73.94
2019-05-23T03:37:16.101Z,74.03
2019-05-23T03:39:46.455Z,73.66
2019-05-23T03:42:16.264Z,73.56
2019-05-23T03:44:47.434Z,73.43
2019-05-23T03:47:18.457Z,73.60
2019-05-23T03:49:48.240Z,73.67
2019-05-23T03:52:19.023Z,73.52
2019-05-23T03:54:49.804Z,73.39
2019-05-23T03:57:25.354Z,73.35
2019-05-23T03:59:51.986Z,73.56
2019-05-23T04:02:25.845Z,73.39
2019-05-23T04:04:55.936Z,73.24
2019-05-23T04:07:25.125Z,73.15
2019-05-23T04:09:54.456Z,73.15
2019-05-23T04:12:23.762Z,73.32
2019-05-23T04:14:53.572Z,73.34
2019-05-23T04:17:22.785Z,73.44
2019-05-23T04:19:51.938Z,73.31
2019-05-23T04:22:21.109Z,73.21
2019-05-23T04:24:50.339Z,73.19
2019-05-23T04:27:19.684Z,73.36
2019-05-23T04:29:48.831Z,73.53
2019-05-23T04:32:18.339Z,73.64
2019-05-23T04:34:47.594Z,73.61
2019-05-23T04:37:16.745Z,73.76
2019-05-23T04:39:46.045Z,73.90
2019-05-23T04:42:15.221Z,74.10
2019-05-23T04:44:44.954Z,74.21
2019-05-23T04:47:14.056Z,74.20
2019-05-23T04:49:43.295Z,74.42
2019-05-23T04:52:12.504Z,74.47
2019-05-23T04:54:42.224Z,74.53
2019-05-23T04:57:13.072Z,74.93
2019-05-23T04:59:42.495Z,74.93
2019-05-23T05:02:25.679Z,75.13
2019-05-23T05:04:43.430Z,75.42
2019-05-23T05:07:12.621Z,75.85
2019-05-23T05:09:41.727Z,76.08
2019-05-23T05:12:12.616Z,76.15
2019-05-23T05:14:41.752Z,76.13
2019-05-23T05:17:11.637Z,76.12
2019-05-23T05:19:40.953Z,75.46
2019-05-23T05:22:10.314Z,74.89
2019-05-23T05:24:40.323Z,74.76
2019-05-23T05:27:09.933Z,73.34
2019-05-23T05:29:39.096Z,73.47
2019-05-23T05:32:09.642Z,73.73
2019-05-23T05:34:38.736Z,72.52
2019-05-23T05:37:07.958Z,73.35
2019-05-23T05:39:37.194Z,73.56
2019-05-23T05:42:08.390Z,73.09
2019-05-23T05:44:38.398Z,73.12
2019-05-23T05:47:09.102Z,72.43
2019-05-23T05:49:42.090Z,71.98
2019-05-23T05:52:09.923Z,71.34
2019-05-23T05:54:39.097Z,70.85
2019-05-23T05:57:08.239Z,71.50
2019-05-23T05:59:37.356Z,71.19
2019-05-23T06:02:08.873Z,71.19
2019-05-23T06:04:38.158Z,71.78
2019-05-23T06:07:16.584Z,71.83
2019-05-23T06:09:45.990Z,71.82
2019-05-23T06:12:15.710Z,71.60
2019-05-23T06:14:46.646Z,70.15
2019-05-23T06:17:16.833Z,70.44
2019-05-23T06:19:46.548Z,69.86
2019-05-23T06:22:15.947Z,69.24
2019-05-23T06:24:50.438Z,69.00
2019-05-23T06:27:18.180Z,68.82
2019-05-23T06:29:47.515Z,67.47
2019-05-23T06:32:18.837Z,68.30
2019-05-23T06:34:48.710Z,68.69
2019-05-23T06:37:21.009Z,66.50
2019-05-23T06:39:50.246Z,67.64
2019-05-23T06:42:19.507Z,65.51
2019-05-23T06:44:48.822Z,66.60
2019-05-23T06:47:18.366Z,66.35
2019-05-23T06:49:47.564Z,66.77
2019-05-23T06:52:17.070Z,67.14
2019-05-23T06:54:46.209Z,67.25
2019-05-23T06:57:15.761Z,67.12
2019-05-23T06:59:44.963Z,67.49
2019-05-23T07:02:14.178Z,67.01
2019-05-23T07:04:43.587Z,66.13
2019-05-23T07:07:13.228Z,65.88
2019-05-23T07:09:42.631Z,65.69
2019-05-23T07:12:12.128Z,64.69
2019-05-23T07:14:41.321Z,65.50
2019-05-23T07:17:10.768Z,64.76
2019-05-23T07:19:39.945Z,64.56
2019-05-23T07:22:10.615Z,63.70
2019-05-23T07:24:55.193Z,63.62
2019-05-23T07:27:10.720Z,64.00
2019-05-23T07:29:39.899Z,63.63
2019-05-23T07:32:09.304Z,62.03
2019-05-23T07:34:38.639Z,62.16
2019-05-23T07:37:07.891Z,61.12
2019-05-23T07:39:37.234Z,58.20
2019-05-23T07:42:06.695Z,60.61
2019-05-23T07:44:47.849Z,62.61
2019-05-23T07:47:13.373Z,61.51
2019-05-23T07:49:43.037Z,58.07
2019-05-23T07:52:12.785Z,60.65
2019-05-23T07:54:56.687Z,59.71
2019-05-23T07:57:26.287Z,60.25
2019-05-23T07:59:55.911Z,58.45
2019-05-23T08:02:34.847Z,54.52
2019-05-23T08:05:06.185Z,53.95
2019-05-23T08:07:35.938Z,53.11
2019-05-23T08:10:06.496Z,55.61
2019-05-23T08:12:35.618Z,56.20
2019-05-23T08:15:05.324Z,53.45
2019-05-23T08:17:35.021Z,54.38
2019-05-23T08:20:04.716Z,55.13
2019-05-23T08:22:34.018Z,55.90
2019-05-23T08:25:03.414Z,53.51
2019-05-23T08:27:34.481Z,53.93
2019-05-23T08:30:04.756Z,53.00
2019-05-23T08:32:34.053Z,51.58
2019-05-23T08:35:04.599Z,50.53
2019-05-23T08:37:34.097Z,51.94
2019-05-23T08:40:04.858Z,52.25
2019-05-23T08:42:35.743Z,52.31
2019-05-23T08:45:05.545Z,50.93
2019-05-23T08:47:35.225Z,51.08
2019-05-23T08:50:05.171Z,52.91
2019-05-23T08:52:34.327Z,48.96
2019-05-23T08:55:08.236Z,49.23
2019-05-23T08:57:37.712Z,49.79
2019-05-23T09:00:07.631Z,49.09
2019-05-23T09:02:37.485Z,50.18
2019-05-23T09:05:08.401Z,50.58
2019-05-23T09:07:37.689Z,49.47
2019-05-23T09:10:08.082Z,50.03
2019-05-23T09:12:37.957Z,49.86
2019-05-23T09:15:09.775Z,52.04
2019-05-23T09:17:52.206Z,52.30
2019-05-23T09:20:10.335Z,51.55
2019-05-23T09:22:40.161Z,51.61
2019-05-23T09:25:09.880Z,50.80
2019-05-23T09:27:39.260Z,51.21
2019-05-23T09:30:09.598Z,51.44
2019-05-23T09:32:38.794Z,48.29
2019-05-23T09:35:20.443Z,48.75
2019-05-23T09:37:40.391Z,50.75
2019-05-23T09:40:10.113Z,50.15
2019-05-23T09:42:39.251Z,48.32
2019-05-23T09:45:08.615Z,47.63
2019-05-23T09:47:37.802Z,48.70
2019-05-23T09:50:10.176Z,48.91
2019-05-23T09:52:39.434Z,49.29
2019-05-23T09:55:08.898Z,48.70
2019-05-23T09:57:38.335Z,48.31
2019-05-23T10:00:09.191Z,47.27
2019-05-23T10:02:38.712Z,48.06
2019-05-23T10:05:10.793Z,47.54
2019-05-23T10:07:40.263Z,46.86
2019-05-23T10:10:11.536Z,47.59
2019-05-23T10:12:40.929Z,49.36
2019-05-23T10:15:16.857Z,48.37
2019-05-23T10:17:46.166Z,46.86
2019-05-23T10:20:16.440Z,45.58
2019-05-23T10:22:45.828Z,46.27
2019-05-23T10:25:15.031Z,45.63
2019-05-23T10:27:44.322Z,46.17
2019-05-23T10:30:15.982Z,47.10
2019-05-23T10:32:45.168Z,46.22
2019-05-23T10:35:15.610Z,46.45
2019-05-23T10:37:44.804Z,46.78
2019-05-23T10:40:15.563Z,45.69
2019-05-23T10:42:44.929Z,46.52
2019-05-23T10:45:15.710Z,46.79
2019-05-23T10:47:44.945Z,46.17
2019-05-23T10:50:14.616Z,45.31
2019-05-23T10:52:43.849Z,46.04
2019-05-23T10:55:13.068Z,46.83
2019-05-23T10:57:42.785Z,49.33
2019-05-23T11:00:14.191Z,45.58
2019-05-23T11:02:44.210Z,45.59
2019-05-23T11:05:14.463Z,44.94
2019-05-23T11:07:43.710Z,44.68
2019-05-23T11:10:16.334Z,44.40
2019-05-23T11:12:45.558Z,45.00
2019-05-23T11:15:15.271Z,45.70
2019-05-23T11:17:44.977Z,44.11
2019-05-23T11:20:15.575Z,44.63
2019-05-23T11:22:45.434Z,44.04
2019-05-23T11:25:17.047Z,43.91
2019-05-23T11:27:46.568Z,42.87
2019-05-23T11:30:24.039Z,47.35
2019-05-23T11:32:53.298Z,44.84
2019-05-23T11:35:23.586Z,43.23
2019-05-23T11:37:52.949Z,41.51
2019-05-23T11:40:22.205Z,42.78
2019-05-23T11:42:52.957Z,41.49
2019-05-23T11:45:24.096Z,41.21
2019-05-23T11:47:53.659Z,41.29
2019-05-23T11:50:23.263Z,41.02
2019-05-23T11:52:55.833Z,41.30
2019-05-23T11:55:23.968Z,40.99
2019-05-23T11:57:53.296Z,40.07
2019-05-23T12:00:40.897Z,39.24
2019-05-23T12:03:10.106Z,39.63
2019-05-23T12:05:39.449Z,40.14
2019-05-23T12:08:08.809Z,40.65
2019-05-23T12:10:38.018Z,39.92
2019-05-23T12:13:07.511Z,41.94
2019-05-23T12:15:38.411Z,39.40
2019-05-23T12:18:09.361Z,40.17
2019-05-23T12:20:39.051Z,39.54
2019-05-23T12:23:11.006Z,38.36
2019-05-23T12:25:39.448Z,39.43
2019-05-23T12:28:09.055Z,39.57
2019-05-23T12:30:38.511Z,40.26
2019-05-23T12:33:07.866Z,41.27
2019-05-23T12:35:37.058Z,37.45
2019-05-23T12:38:06.621Z,38.35
2019-05-23T12:40:36.293Z,36.22
2019-05-23T12:43:05.626Z,38.07
2019-05-23T12:45:35.014Z,36.87
2019-05-23T12:48:08.455Z,37.08
2019-05-23T12:50:40.851Z,38.01
2019-05-23T12:53:11.835Z,38.62
2019-05-23T12:55:40.967Z,38.63
2019-05-23T12:58:10.133Z,38.51
2019-05-23T13:00:53.311Z,38.21
2019-05-23T13:03:23.029Z,37.66
2019-05-23T13:05:55.421Z,37.64
2019-05-23T13:08:24.742Z,36.08
2019-05-23T13:10:53.884Z,35.36
2019-05-23T13:13:23.408Z,35.02
2019-05-23T13:15:52.719Z,37.80
2019-05-23T13:18:22.219Z,39.30
2019-05-23T13:20:51.882Z,36.59
2019-05-23T13:23:22.029Z,35.59
2019-05-23T13:25:51.364Z,35.34
2019-05-23T13:28:20.615Z,36.73
2019-05-23T13:30:49.887Z,35.33
2019-05-23T13:33:19.085Z,34.69
2019-05-23T13:35:48.711Z,36.02
2019-05-23T13:38:17.971Z,36.12
2019-05-23T13:40:47.293Z,36.00
2019-05-23T13:43:16.502Z,35.17
2019-05-23T13:45:45.839Z,36.69
2019-05-23T13:48:14.960Z,38.36
2019-05-23T13:50:44.614Z,37.16
2019-05-23T13:53:13.832Z,36.28
2019-05-23T13:55:43.478Z,37.57
2019-05-23T13:58:12.921Z,36.50
2019-05-23T14:00:43.470Z,36.79
2019-05-23T14:03:12.719Z,34.08
2019-05-23T14:05:42.242Z,33.61
2019-05-23T14:08:13.302Z,33.53
2019-05-23T14:10:42.666Z,34.64
2019-05-23T14:13:11.811Z,34.37
2019-05-23T14:15:43.634Z,33.26
2019-05-23T14:18:15.364Z,33.76
2019-05-23T14:20:44.564Z,33.38
2019-05-23T14:23:32.818Z,33.06
2019-05-23T14:26:03.430Z,35.47
2019-05-23T14:28:32.862Z,33.31
2019-05-23T14:31:11.015Z,33.99
2019-05-23T14:34:04.990Z,33.83
2019-05-23T14:36:51.810Z,33.62
2019-05-23T14:39:32.493Z,33.97
2019-05-23T14:42:10.523Z,31.39
2019-05-23T14:44:39.709Z,31.74
2019-05-23T14:47:30.955Z,31.47
2019-05-23T14:50:27.954Z,31.40
2019-05-23T14:52:58.365Z,29.38
2019-05-23T14:55:27.642Z,31.82
2019-05-23T14:57:56.799Z,30.25
2019-05-23T15:00:27.703Z,28.46
2019-05-23T15:02:56.815Z,30.09
2019-05-23T15:05:26.240Z,31.27
2019-05-23T15:07:55.398Z,28.74
2019-05-23T15:10:25.068Z,30.59
2019-05-23T15:12:54.196Z,28.64
2019-05-23T15:15:23.471Z,28.09
2019-05-23T15:17:52.654Z,27.06
2019-05-23T15:20:21.804Z,26.69
2019-05-23T15:22:51.542Z,26.63
2019-05-23T15:25:20.729Z,26.61
2019-05-23T15:27:49.894Z,24.81
2019-05-23T15:30:19.590Z,24.40
2019-05-23T15:32:48.757Z,25.02
2019-05-23T15:35:18.082Z,23.24
2019-05-23T15:37:47.424Z,22.52
2019-05-23T15:40:16.665Z,20.93
2019-05-23T15:42:45.804Z,20.73
2019-05-23T15:45:14.919Z,19.78
2019-05-23T15:47:44.072Z,21.23
2019-05-23T15:50:16.203Z,22.17
2019-05-23T15:53:10.151Z,21.27
2019-05-23T15:55:54.218Z,22.39
2019-05-23T15:58:46.747Z,21.07
2019-05-23T16:01:23.337Z,21.43
2019-05-23T16:04:02.396Z,21.04
2019-05-23T16:06:33.148Z,19.16
2019-05-23T16:09:02.376Z,19.29
2019-05-23T16:11:31.503Z,20.17
2019-05-23T16:14:00.735Z,20.31
2019-05-23T16:16:31.142Z,20.52
2019-05-23T16:19:00.538Z,22.18
2019-05-23T16:21:30.711Z,23.28
2019-05-23T16:24:01.143Z,24.12
2019-05-23T16:26:30.487Z,25.29
2019-05-23T16:29:01.286Z,25.32
2019-05-23T16:31:30.563Z,28.08
2019-05-23T16:33:59.835Z,27.82
2019-05-23T16:36:28.896Z,27.46
2019-05-23T16:38:58.018Z,27.42
2019-05-23T16:41:27.668Z,28.60
2019-05-23T16:43:56.949Z,28.74
2019-05-23T16:46:26.188Z,28.05
2019-05-23T16:48:55.467Z,28.93
2019-05-23T16:51:24.649Z,29.59
2019-05-23T16:53:54.050Z,29.62
2019-05-23T16:56:42.890Z,31.04
2019-05-23T16:59:27.686Z,29.88
2019-05-23T17:02:07.701Z,29.44
2019-05-23T17:05:08.518Z,29.29
2019-05-23T17:07:39.891Z,30.64
2019-05-23T17:10:31.633Z,29.68
2019-05-23T17:13:08.702Z,30.63
2019-05-23T17:16:06.265Z,29.77
2019-05-23T17:19:00.881Z,30.62
2019-05-23T17:21:56.446Z,30.09
2019-05-23T17:24:40.174Z,30.12
2019-05-23T17:27:35.079Z,31.13
2019-05-23T17:30:35.948Z,30.83
2019-05-23T17:33:07.019Z,33.04
2019-05-23T17:35:36.926Z,32.96
2019-05-23T17:38:06.180Z,32.58
2019-05-23T17:40:35.793Z,31.99
2019-05-23T17:43:05.010Z,33.15
2019-05-23T17:45:34.702Z,33.74
2019-05-23T17:48:04.115Z,33.59
2019-05-23T17:50:34.884Z,34.20
2019-05-23T17:53:04.471Z,33.01
2019-05-23T17:55:34.316Z,33.40
2019-05-23T17:58:03.681Z,33.88
2019-05-23T18:00:38.479Z,33.37
2019-05-23T18:03:08.050Z,35.10
2019-05-23T18:05:37.628Z,34.86
2019-05-23T18:08:08.845Z,34.53
2019-05-23T18:10:44.416Z,34.37
2019-05-23T18:13:10.985Z,37.70
2019-05-23T18:15:40.464Z,36.26
2019-05-23T18:18:10.199Z,36.66
2019-05-23T18:20:41.345Z,36.80
2019-05-23T18:23:11.179Z,36.58
2019-05-23T18:25:41.461Z,37.45
2019-05-23T18:28:12.155Z,39.05
2019-05-23T18:30:53.852Z,39.30
2019-05-23T18:33:25.498Z,39.54
2019-05-23T18:35:56.317Z,39.62
2019-05-23T18:38:26.214Z,38.95
2019-05-23T18:41:04.028Z,40.36
2019-05-23T18:43:26.930Z,40.91
2019-05-23T18:46:00.022Z,41.18
2019-05-23T18:48:29.633Z,41.33
2019-05-23T18:50:59.088Z,41.44
2019-05-23T18:53:29.213Z,43.16
2019-05-23T18:55:58.440Z,42.45
2019-05-23T18:58:27.941Z,44.97
2019-05-23T19:01:05.782Z,44.02
2019-05-23T19:03:35.031Z,44.38
2019-05-23T19:06:04.546Z,44.76
2019-05-23T19:08:33.972Z,45.61
2019-05-23T19:11:19.410Z,45.16
2019-05-23T19:13:34.427Z,45.87
2019-05-23T19:16:03.762Z,45.81
2019-05-23T19:18:33.782Z,45.55
2019-05-23T19:21:04.271Z,46.89
2019-05-23T19:23:33.810Z,46.89
2019-05-23T19:26:02.983Z,46.40
2019-05-23T19:28:32.467Z,46.25
2019-05-23T19:31:02.529Z,46.64
2019-05-23T19:33:31.855Z,47.25
2019-05-23T19:36:01.293Z,47.94
2019-05-23T19:38:30.489Z,48.54
2019-05-23T19:40:59.746Z,49.27
2019-05-23T19:43:29.325Z,48.33
2019-05-23T19:45:58.568Z,48.52
2019-05-23T19:48:27.809Z,49.12
2019-05-23T19:50:57.130Z,49.47
2019-05-23T19:53:26.323Z,48.60
2019-05-23T19:55:55.741Z,49.77
2019-05-23T19:58:25.284Z,49.98
2019-05-23T20:00:54.566Z,50.19
2019-05-23T20:03:23.968Z,50.22
2019-05-23T20:05:54.832Z,50.67
2019-05-23T20:08:24.843Z,50.70
2019-05-23T20:10:54.096Z,51.73
2019-05-23T20:13:24.697Z,51.51
2019-05-23T20:15:53.945Z,51.75
2019-05-23T20:18:23.924Z,51.80
2019-05-23T20:20:53.208Z,51.72
2019-05-23T20:23:22.458Z,52.09
2019-05-23T20:25:51.693Z,52.97
2019-05-23T20:28:21.344Z,52.46
2019-05-23T20:30:57.913Z,52.34
2019-05-23T20:33:27.325Z,52.88
2019-05-23T20:35:56.673Z,53.22
2019-05-23T20:38:26.509Z,53.25
2019-05-23T20:40:56.944Z,53.62
2019-05-23T20:43:26.176Z,54.09
2019-05-23T20:45:55.411Z,53.55
2019-05-23T20:48:25.914Z,53.92
2019-05-23T20:50:55.133Z,54.23
2019-05-23T20:53:24.482Z,53.87
2019-05-23T20:55:53.695Z,54.23
2019-05-23T20:58:23.243Z,54.28
2019-05-23T21:01:03.143Z,54.28
2019-05-23T21:03:35.326Z,54.54
2019-05-23T21:06:04.735Z,55.10
2019-05-23T21:08:33.981Z,55.16
2019-05-23T21:11:03.160Z,55.27
2019-05-23T21:13:32.517Z,55.37
2019-05-23T21:16:01.821Z,55.21
2019-05-23T21:18:31.101Z,55.29
2019-05-23T21:21:02.385Z,55.78
2019-05-23T21:23:31.750Z,56.01
2019-05-23T21:26:04.756Z,55.76
2019-05-23T21:28:36.227Z,56.17
2019-05-23T21:31:09.488Z,56.27
2019-05-23T21:33:38.703Z,56.67
2019-05-23T21:36:07.935Z,56.60
2019-05-23T21:38:37.173Z,56.56
2019-05-23T21:41:06.329Z,56.81
2019-05-23T21:43:35.476Z,56.74
2019-05-23T21:46:04.782Z,57.20
2019-05-23T21:48:33.901Z,57.21
2019-05-23T21:51:03.106Z,57.23
2019-05-23T21:53:32.210Z,57.38
2019-05-23T21:56:01.450Z,57.54
2019-05-23T21:58:30.692Z,57.63
2019-05-23T22:01:29.831Z,57.61
2019-05-23T22:04:27.703Z,57.28
2019-05-23T22:07:02.370Z,57.95
2019-05-23T22:09:31.757Z,57.72
2019-05-23T22:12:01.520Z,57.91
2019-05-23T22:14:30.672Z,57.81
2019-05-23T22:16:59.803Z,57.95
2019-05-23T22:19:29.674Z,57.75
2019-05-23T22:21:58.936Z,57.97
2019-05-23T22:24:28.258Z,57.66
2019-05-23T22:26:57.370Z,57.84
2019-05-23T22:29:26.618Z,57.75
2019-05-23T22:31:56.630Z,58.22
2019-05-23T22:34:32.058Z,58.03
2019-05-23T22:37:01.693Z,58.41
2019-05-23T22:39:30.844Z,57.93
2019-05-23T22:41:59.968Z,58.11
2019-05-23T22:44:29.049Z,58.16
2019-05-23T22:46:58.487Z,58.30
2019-05-23T22:49:27.577Z,58.52
2019-05-23T22:51:56.716Z,58.65
2019-05-23T22:54:25.848Z,59.14
2019-05-23T22:56:55.132Z,59.11
2019-05-23T22:59:24.286Z,59.38
2019-05-23T23:01:53.417Z,59.47
2019-05-23T23:04:22.619Z,59.30
2019-05-23T23:06:51.856Z,59.50
2019-05-23T23:09:21.720Z,59.77
2019-05-23T23:11:50.858Z,59.96
2019-05-23T23:14:19.973Z,60.14
2019-05-23T23:16:49.968Z,59.98
2019-05-23T23:19:19.099Z,59.84
2019-05-23T23:21:48.223Z,60.08
2019-05-23T23:24:17.432Z,60.27
2019-05-23T23:26:46.722Z,60.49
2019-05-23T23:29:15.955Z,60.55
2019-05-23T23:31:45.092Z,61.00
2019-05-23T23:34:14.227Z,61.14
2019-05-23T23:36:43.450Z,60.99
2019-05-23T23:39:12.790Z,60.98
2019-05-23T23:41:41.886Z,60.95
2019-05-23T23:44:11.555Z,61.05
2019-05-23T23:46:58.678Z,60.76
2019-05-23T23:49:45.923Z,60.97
2019-05-23T23:52:32.967Z,60.91
2019-05-23T23:55:19.960Z,60.57
2019-05-23T23:58:00.306Z,60.70
